sensor_id;sensor_type;location;lat;lon;timestamp;pressure;altitude;pressure_sealevel;temperature;humidity
42771;BME280;28426;42.872;25.314;2024-03-08T00:01:49;97106.75;;;2.80;88.03
42771;BME280;28426;42.872;25.314;2024-03-08T00:04:23;97102.59;;;2.77;87.93
42771;BME280;28426;42.872;25.314;2024-03-08T00:06:54;97097.59;;;2.74;87.86
42771;BME280;28426;42.872;25.314;2024-03-08T00:09:25;97098.72;;;2.71;87.90
42771;BME280;28426;42.872;25.314;2024-03-08T00:11:58;97088.69;;;2.65;88.13
42771;BME280;28426;42.872;25.314;2024-03-08T00:14:29;97093.97;;;2.65;88.09
42771;BME280;28426;42.872;25.314;2024-03-08T00:17:00;97089.66;;;2.64;88.37
42771;BME280;28426;42.872;25.314;2024-03-08T00:19:31;97087.03;;;2.64;88.46
42771;BME280;28426;42.872;25.314;2024-03-08T00:22:02;97088.00;;;2.63;88.39
42771;BME280;28426;42.872;25.314;2024-03-08T00:24:32;97089.66;;;2.64;88.68
42771;BME280;28426;42.872;25.314;2024-03-08T00:27:04;97085.25;;;2.65;88.79
42771;BME280;28426;42.872;25.314;2024-03-08T00:29:36;97089.53;;;2.66;88.74
42771;BME280;28426;42.872;25.314;2024-03-08T00:32:08;97085.25;;;2.65;88.45
42771;BME280;28426;42.872;25.314;2024-03-08T00:34:41;97083.72;;;2.62;88.26
42771;BME280;28426;42.872;25.314;2024-03-08T00:37:11;97088.28;;;2.60;88.26
42771;BME280;28426;42.872;25.314;2024-03-08T00:39:42;97074.56;;;2.56;88.52
42771;BME280;28426;42.872;25.314;2024-03-08T00:42:13;97084.25;;;2.56;88.63
42771;BME280;28426;42.872;25.314;2024-03-08T00:44:44;97078.97;;;2.56;88.89
42771;BME280;28426;42.872;25.314;2024-03-08T00:47:15;97076.34;;;2.56;88.85
42771;BME280;28426;42.872;25.314;2024-03-08T00:49:49;97075.53;;;2.55;88.88
42771;BME280;28426;42.872;25.314;2024-03-08T00:52:20;97071.06;;;2.56;88.80
42771;BME280;28426;42.872;25.314;2024-03-08T00:54:51;97078.00;;;2.57;88.93
42771;BME280;28426;42.872;25.314;2024-03-08T00:57:22;97076.06;;;2.59;88.85
42771;BME280;28426;42.872;25.314;2024-03-08T00:59:53;97074.13;;;2.61;88.94
42771;BME280;28426;42.872;25.314;2024-03-08T01:02:24;97079.41;;;2.61;89.15
42771;BME280;28426;42.872;25.314;2024-03-08T01:04:57;97080.78;;;2.65;88.94
42771;BME280;28426;42.872;25.314;2024-03-08T01:07:30;97077.22;;;2.66;89.06
42771;BME280;28426;42.872;25.314;2024-03-08T01:10:01;97071.34;;;2.63;88.93
42771;BME280;28426;42.872;25.314;2024-03-08T01:12:32;97075.25;;;2.68;89.01
42771;BME280;28426;42.872;25.314;2024-03-08T01:15:03;97075.81;;;2.72;88.95
42771;BME280;28426;42.872;25.314;2024-03-08T01:17:34;97078.31;;;2.73;88.83
42771;BME280;28426;42.872;25.314;2024-03-08T01:20:09;97078.31;;;2.73;88.80
42771;BME280;28426;42.872;25.314;2024-03-08T01:22:40;97080.09;;;2.73;88.84
42771;BME280;28426;42.872;25.314;2024-03-08T01:25:11;97081.09;;;2.72;88.74
42771;BME280;28426;42.872;25.314;2024-03-08T01:27:42;97084.81;;;2.69;88.62
42771;BME280;28426;42.872;25.314;2024-03-08T01:30:12;97087.47;;;2.69;88.53
42771;BME280;28426;42.872;25.314;2024-03-08T01:32:45;97082.47;;;2.66;88.53
42771;BME280;28426;42.872;25.314;2024-03-08T01:35:19;97074.72;;;2.65;88.68
42771;BME280;28426;42.872;25.314;2024-03-08T01:37:50;97084.41;;;2.64;88.77
42771;BME280;28426;42.872;25.314;2024-03-08T01:40:20;97084.41;;;2.64;88.94
42771;BME280;28426;42.872;25.314;2024-03-08T01:42:51;97084.41;;;2.64;89.08
42771;BME280;28426;42.872;25.314;2024-03-08T01:45:22;97083.56;;;2.64;88.94
42771;BME280;28426;42.872;25.314;2024-03-08T01:47:52;97084.53;;;2.63;89.06
42771;BME280;28426;42.872;25.314;2024-03-08T01:50:26;97094.25;;;2.62;88.73
42771;BME280;28426;42.872;25.314;2024-03-08T01:52:57;97087.16;;;2.63;89.31
42771;BME280;28426;42.872;25.314;2024-03-08T01:55:28;97089.66;;;2.64;89.20
42771;BME280;28426;42.872;25.314;2024-03-08T01:57:59;97090.53;;;2.65;89.40
42771;BME280;28426;42.872;25.314;2024-03-08T02:00:30;97082.63;;;2.65;89.41
42771;BME280;28426;42.872;25.314;2024-03-08T02:03:02;97086.91;;;2.66;89.62
42771;BME280;28426;42.872;25.314;2024-03-08T02:05:36;97083.28;;;2.67;89.42
42771;BME280;28426;42.872;25.314;2024-03-08T02:08:08;97089.41;;;2.67;89.67
42771;BME280;28426;42.872;25.314;2024-03-08T02:10:41;97079.84;;;2.66;89.53
42771;BME280;28426;42.872;25.314;2024-03-08T02:13:12;97080.66;;;2.67;89.50
42771;BME280;28426;42.872;25.314;2024-03-08T02:15:50;97074.41;;;2.68;89.74
42771;BME280;28426;42.872;25.314;2024-03-08T02:18:41;97080.41;;;2.70;89.78
42771;BME280;28426;42.872;25.314;2024-03-08T02:21:17;97084.69;;;2.71;89.97
42771;BME280;28426;42.872;25.314;2024-03-08T02:23:48;97082.91;;;2.71;90.04
42771;BME280;28426;42.872;25.314;2024-03-08T02:26:20;97080.28;;;2.71;89.88
42771;BME280;28426;42.872;25.314;2024-03-08T02:28:50;97082.19;;;2.69;89.73
42771;BME280;28426;42.872;25.314;2024-03-08T02:31:21;97083.16;;;2.68;89.49
42771;BME280;28426;42.872;25.314;2024-03-08T02:33:52;97083.28;;;2.67;89.37
42771;BME280;28426;42.872;25.314;2024-03-08T02:36:25;97086.06;;;2.65;89.40
42771;BME280;28426;42.872;25.314;2024-03-08T02:38:56;97082.75;;;2.63;89.78
42771;BME280;28426;42.872;25.314;2024-03-08T02:41:27;97080.38;;;2.60;89.57
42771;BME280;28426;42.872;25.314;2024-03-08T02:43:58;97078.59;;;2.60;90.04
42771;BME280;28426;42.872;25.314;2024-03-08T02:46:28;97081.34;;;2.59;90.17
42771;BME280;28426;42.872;25.314;2024-03-08T02:48:59;97080.38;;;2.60;89.96
42771;BME280;28426;42.872;25.314;2024-03-08T02:51:32;97074.13;;;2.61;90.32
42771;BME280;28426;42.872;25.314;2024-03-08T02:54:03;97079.41;;;2.61;90.14
42771;BME280;28426;42.872;25.314;2024-03-08T02:56:35;97080.25;;;2.61;90.23
42771;BME280;28426;42.872;25.314;2024-03-08T02:59:06;97080.25;;;2.61;90.40
42771;BME280;28426;42.872;25.314;2024-03-08T03:01:36;97072.34;;;2.61;89.96
42771;BME280;28426;42.872;25.314;2024-03-08T03:04:08;97079.41;;;2.61;90.40
42771;BME280;28426;42.872;25.314;2024-03-08T03:06:42;97079.13;;;2.64;90.40
42771;BME280;28426;42.872;25.314;2024-03-08T03:09:13;97079.13;;;2.64;90.35
42771;BME280;28426;42.872;25.314;2024-03-08T03:11:50;97072.75;;;2.67;90.26
42771;BME280;28426;42.872;25.314;2024-03-08T03:14:21;97078.88;;;2.67;90.53
42771;BME280;28426;42.872;25.314;2024-03-08T03:16:54;97080.53;;;2.68;90.21
42771;BME280;28426;42.872;25.314;2024-03-08T03:19:25;97083.28;;;2.67;90.22
42771;BME280;28426;42.872;25.314;2024-03-08T03:21:59;97079.56;;;2.69;90.14
42771;BME280;28426;42.872;25.314;2024-03-08T03:24:30;97079.69;;;2.68;90.08
42771;BME280;28426;42.872;25.314;2024-03-08T03:27:01;97078.03;;;2.67;90.33
42771;BME280;28426;42.872;25.314;2024-03-08T03:29:39;97076.50;;;2.64;90.19
42771;BME280;28426;42.872;25.314;2024-03-08T03:32:13;97076.91;;;2.69;90.53
42771;BME280;28426;42.872;25.314;2024-03-08T03:34:46;97082.91;;;2.71;90.43
42771;BME280;28426;42.872;25.314;2024-03-08T03:37:23;97079.28;;;2.72;90.77
42771;BME280;28426;42.872;25.314;2024-03-08T03:39:53;97078.31;;;2.73;90.61
42771;BME280;28426;42.872;25.314;2024-03-08T03:42:25;97081.66;;;2.76;90.92
42771;BME280;28426;42.872;25.314;2024-03-08T03:44:55;97078.06;;;2.77;90.87
42771;BME280;28426;42.872;25.314;2024-03-08T03:47:26;97076.09;;;2.79;90.77
42771;BME280;28426;42.872;25.314;2024-03-08T03:49:57;97076.94;;;2.79;90.84
42771;BME280;28426;42.872;25.314;2024-03-08T03:52:33;97081.38;;;2.79;90.84
42771;BME280;28426;42.872;25.314;2024-03-08T03:55:04;97079.59;;;2.79;90.66
42771;BME280;28426;42.872;25.314;2024-03-08T03:57:35;97074.03;;;2.72;90.69
42771;BME280;28426;42.872;25.314;2024-03-08T04:00:07;97089.28;;;2.79;90.80
42771;BME280;28426;42.872;25.314;2024-03-08T04:02:41;97093.56;;;2.80;90.45
42771;BME280;28426;42.872;25.314;2024-03-08T04:05:12;97084.13;;;2.77;90.94
42771;BME280;28426;42.872;25.314;2024-03-08T04:07:45;97087.75;;;2.76;90.87
42771;BME280;28426;42.872;25.314;2024-03-08T04:10:16;97092.22;;;2.76;90.89
42771;BME280;28426;42.872;25.314;2024-03-08T04:12:47;97095.91;;;2.73;90.66
42771;BME280;28426;42.872;25.314;2024-03-08T04:15:18;97100.38;;;2.72;90.78
42771;BME280;28426;42.872;25.314;2024-03-08T04:17:50;97107.44;;;2.72;90.69
42771;BME280;28426;42.872;25.314;2024-03-08T04:20:21;97101.34;;;2.71;91.18
42771;BME280;28426;42.872;25.314;2024-03-08T04:22:55;97106.63;;;2.71;91.09
42771;BME280;28426;42.872;25.314;2024-03-08T04:25:26;97102.16;;;2.72;90.97
42771;BME280;28426;42.872;25.314;2024-03-08T04:27:57;97103.00;;;2.72;90.95
42771;BME280;28426;42.872;25.314;2024-03-08T04:30:28;97103.00;;;2.72;90.81
42771;BME280;28426;42.872;25.314;2024-03-08T04:32:58;97106.31;;;2.74;91.01
42771;BME280;28426;42.872;25.314;2024-03-08T04:35:31;97112.56;;;2.73;91.00
42771;BME280;28426;42.872;25.314;2024-03-08T04:38:04;97118.69;;;2.74;90.97
42771;BME280;28426;42.872;25.314;2024-03-08T04:40:35;97115.06;;;2.75;90.77
42771;BME280;28426;42.872;25.314;2024-03-08T04:43:07;97115.22;;;2.73;90.70
42771;BME280;28426;42.872;25.314;2024-03-08T04:45:38;97114.94;;;2.77;90.87
42771;BME280;28426;42.872;25.314;2024-03-08T04:48:11;97111.34;;;2.78;91.22
42771;BME280;28426;42.872;25.314;2024-03-08T04:50:43;97116.47;;;2.79;91.11
42771;BME280;28426;42.872;25.314;2024-03-08T04:53:16;97119.94;;;2.80;91.23
42771;BME280;28426;42.872;25.314;2024-03-08T04:55:47;97109.38;;;2.80;90.79
42771;BME280;28426;42.872;25.314;2024-03-08T04:58:17;97122.56;;;2.80;91.08
42771;BME280;28426;42.872;25.314;2024-03-08T05:00:48;97126.88;;;2.81;91.16
42771;BME280;28426;42.872;25.314;2024-03-08T05:03:19;97124.94;;;2.83;91.00
42771;BME280;28426;42.872;25.314;2024-03-08T05:05:49;97127.31;;;2.86;91.23
42771;BME280;28426;42.872;25.314;2024-03-08T05:08:23;97130.63;;;2.88;91.52
42771;BME280;28426;42.872;25.314;2024-03-08T05:10:54;97131.34;;;2.90;91.56
42771;BME280;28426;42.872;25.314;2024-03-08T05:13:25;97137.28;;;2.92;91.29
42771;BME280;28426;42.872;25.314;2024-03-08T05:15:55;97138.00;;;2.94;91.32
42771;BME280;28426;42.872;25.314;2024-03-08T05:18:26;97144.94;;;2.95;91.31
42771;BME280;28426;42.872;25.314;2024-03-08T05:20:59;97148.44;;;2.96;91.37
42771;BME280;28426;42.872;25.314;2024-03-08T05:23:34;97152.72;;;2.97;91.44
42771;BME280;28426;42.872;25.314;2024-03-08T05:26:06;97150.78;;;2.99;91.77
42771;BME280;28426;42.872;25.314;2024-03-08T05:28:36;97158.56;;;3.00;91.73
42771;BME280;28426;42.872;25.314;2024-03-08T05:31:07;97155.91;;;3.00;91.47
42771;BME280;28426;42.872;25.314;2024-03-08T05:33:38;97160.22;;;3.01;91.81
42771;BME280;28426;42.872;25.314;2024-03-08T05:36:10;97168.00;;;3.03;91.51
42771;BME280;28426;42.872;25.314;2024-03-08T05:38:45;97165.22;;;3.05;91.97
42771;BME280;28426;42.872;25.314;2024-03-08T05:41:18;97175.75;;;3.05;92.08
42771;BME280;28426;42.872;25.314;2024-03-08T05:43:48;97166.88;;;3.06;91.95
42771;BME280;28426;42.872;25.314;2024-03-08T05:46:19;97173.00;;;3.06;92.12
42771;BME280;28426;42.872;25.314;2024-03-08T05:48:50;97180.78;;;3.08;92.10
42771;BME280;28426;42.872;25.314;2024-03-08T05:51:23;97179.09;;;3.07;91.98
42771;BME280;28426;42.872;25.314;2024-03-08T05:53:57;97181.72;;;3.07;92.30
42771;BME280;28426;42.872;25.314;2024-03-08T05:56:29;97184.34;;;3.07;92.05
42771;BME280;28426;42.872;25.314;2024-03-08T05:59:00;97187.72;;;3.09;92.25
42771;BME280;28426;42.872;25.314;2024-03-08T06:01:30;97191.31;;;3.08;92.44
42771;BME280;28426;42.872;25.314;2024-03-08T06:04:04;97187.00;;;3.07;91.98
42771;BME280;28426;42.872;25.314;2024-03-08T06:06:34;97192.56;;;3.04;92.32
42771;BME280;28426;42.872;25.314;2024-03-08T06:09:08;97203.22;;;3.02;92.25
42771;BME280;28426;42.872;25.314;2024-03-08T06:11:44;97202.53;;;3.00;92.00
42771;BME280;28426;42.872;25.314;2024-03-08T06:14:15;97200.72;;;3.00;92.12
42771;BME280;28426;42.872;25.314;2024-03-08T06:16:46;97201.69;;;2.99;92.25
42771;BME280;28426;42.872;25.314;2024-03-08T06:19:17;97199.31;;;2.96;92.05
42771;BME280;28426;42.872;25.314;2024-03-08T06:21:48;97203.91;;;2.94;92.10
42771;BME280;28426;42.872;25.314;2024-03-08T06:24:21;97210.84;;;2.95;92.33
42771;BME280;28426;42.872;25.314;2024-03-08T06:26:52;97203.91;;;2.94;91.98
42771;BME280;28426;42.872;25.314;2024-03-08T06:29:23;97205.84;;;2.92;92.24
42771;BME280;28426;42.872;25.314;2024-03-08T06:31:54;97214.72;;;2.91;92.21
42771;BME280;28426;42.872;25.314;2024-03-08T06:34:24;97215.69;;;2.90;92.01
42771;BME280;28426;42.872;25.314;2024-03-08T06:36:55;97219.31;;;2.89;91.91
42771;BME280;28426;42.872;25.314;2024-03-08T06:39:31;97216.66;;;2.89;92.23
42771;BME280;28426;42.872;25.314;2024-03-08T06:42:03;97219.31;;;2.89;92.51
42771;BME280;28426;42.872;25.314;2024-03-08T06:44:37;97225.50;;;2.88;92.16
42771;BME280;28426;42.872;25.314;2024-03-08T06:47:16;97225.50;;;2.88;92.07
42771;BME280;28426;42.872;25.314;2024-03-08T06:49:47;97230.09;;;2.86;92.04
42771;BME280;28426;42.872;25.314;2024-03-08T06:52:19;97224.81;;;2.86;91.76
42771;BME280;28426;42.872;25.314;2024-03-08T06:54:53;97232.03;;;2.84;91.99
42771;BME280;28426;42.872;25.314;2024-03-08T06:57:24;97228.44;;;2.85;91.76
42771;BME280;28426;42.872;25.314;2024-03-08T06:59:57;97236.59;;;2.82;91.83
42771;BME280;28426;42.872;25.314;2024-03-08T07:02:29;97240.22;;;2.81;91.64
42771;BME280;28426;42.872;25.314;2024-03-08T07:05:02;97237.84;;;2.78;91.59
42771;BME280;28426;42.872;25.314;2024-03-08T07:07:33;97245.31;;;2.72;91.55
42771;BME280;28426;42.872;25.314;2024-03-08T07:10:07;97256.09;;;2.69;91.97
42771;BME280;28426;42.872;25.314;2024-03-08T07:12:38;97254.56;;;2.67;92.04
42771;BME280;28426;42.872;25.314;2024-03-08T07:15:09;97252.06;;;2.65;92.18
42771;BME280;28426;42.872;25.314;2024-03-08T07:17:42;97252.06;;;2.65;91.88
42771;BME280;28426;42.872;25.314;2024-03-08T07:20:15;97258.16;;;2.66;92.10
42771;BME280;28426;42.872;25.314;2024-03-08T07:22:46;97261.66;;;2.66;92.33
42771;BME280;28426;42.872;25.314;2024-03-08T07:25:21;97264.97;;;2.68;92.13
42771;BME280;28426;42.872;25.314;2024-03-08T07:27:53;97266.91;;;2.66;92.33
42771;BME280;28426;42.872;25.314;2024-03-08T07:30:25;97270.25;;;2.68;91.98
42771;BME280;28426;42.872;25.314;2024-03-08T07:33:10;97273.56;;;2.70;92.09
42771;BME280;28426;42.872;25.314;2024-03-08T07:35:42;97284.97;;;2.71;92.34
42771;BME280;28426;42.872;25.314;2024-03-08T07:38:13;97281.22;;;2.73;92.02
42771;BME280;28426;42.872;25.314;2024-03-08T07:40:46;97283.72;;;2.75;92.12
42771;BME280;28426;42.872;25.314;2024-03-08T07:43:17;97289.97;;;2.74;91.67
42771;BME280;28426;42.872;25.314;2024-03-08T07:45:48;97289.13;;;2.73;91.47
42771;BME280;28426;42.872;25.314;2024-03-08T07:48:20;97290.78;;;2.74;91.46
42771;BME280;28426;42.872;25.314;2024-03-08T07:50:51;97296.06;;;2.74;91.47
42771;BME280;28426;42.872;25.314;2024-03-08T07:53:22;97291.75;;;2.73;91.12
42771;BME280;28426;42.872;25.314;2024-03-08T07:55:56;97296.34;;;2.71;91.25
42771;BME280;28426;42.872;25.314;2024-03-08T07:58:27;97291.06;;;2.71;91.62
42771;BME280;28426;42.872;25.314;2024-03-08T08:01:01;97300.63;;;2.72;91.50
42771;BME280;28426;42.872;25.314;2024-03-08T08:03:32;97300.50;;;2.74;91.53
42771;BME280;28426;42.872;25.314;2024-03-08T08:06:05;97299.53;;;2.75;91.59
42771;BME280;28426;42.872;25.314;2024-03-08T08:08:36;97300.50;;;2.74;91.70
42771;BME280;28426;42.872;25.314;2024-03-08T08:11:10;97295.38;;;2.72;91.46
42771;BME280;28426;42.872;25.314;2024-03-08T08:13:42;97296.06;;;2.74;91.60
42771;BME280;28426;42.872;25.314;2024-03-08T08:16:13;97299.66;;;2.73;91.61
42771;BME280;28426;42.872;25.314;2024-03-08T08:18:44;97303.28;;;2.72;91.40
42771;BME280;28426;42.872;25.314;2024-03-08T08:21:15;97304.25;;;2.71;91.42
42771;BME280;28426;42.872;25.314;2024-03-08T08:23:46;97302.56;;;2.70;91.63
42771;BME280;28426;42.872;25.314;2024-03-08T08:26:19;97308.78;;;2.69;91.22
42771;BME280;28426;42.872;25.314;2024-03-08T08:28:50;97308.22;;;2.66;90.97
42771;BME280;28426;42.872;25.314;2024-03-08T08:31:20;97307.38;;;2.65;91.33
42771;BME280;28426;42.872;25.314;2024-03-08T08:33:51;97311.97;;;2.63;91.47
42771;BME280;28426;42.872;25.314;2024-03-08T08:36:25;97311.97;;;2.63;91.60
42771;BME280;28426;42.872;25.314;2024-03-08T08:38:57;97311.97;;;2.63;91.73
42771;BME280;28426;42.872;25.314;2024-03-08T08:41:33;97307.50;;;2.64;91.44
42771;BME280;28426;42.872;25.314;2024-03-08T08:44:04;97308.47;;;2.63;91.24
42771;BME280;28426;42.872;25.314;2024-03-08T08:46:43;97314.59;;;2.63;91.39
42771;BME280;28426;42.872;25.314;2024-03-08T08:49:13;97314.59;;;2.63;91.53
42771;BME280;28426;42.872;25.314;2024-03-08T08:51:50;97316.38;;;2.63;91.13
42771;BME280;28426;42.872;25.314;2024-03-08T08:54:25;97318.06;;;2.64;91.53
42771;BME280;28426;42.872;25.314;2024-03-08T08:56:58;97318.06;;;2.64;91.02
42771;BME280;28426;42.872;25.314;2024-03-08T08:59:35;97309.31;;;2.63;91.34
42771;BME280;28426;42.872;25.314;2024-03-08T09:02:07;97317.09;;;2.65;91.26
42771;BME280;28426;42.872;25.314;2024-03-08T09:04:42;97316.97;;;2.66;91.14
42771;BME280;28426;42.872;25.314;2024-03-08T09:07:12;97316.00;;;2.67;91.01
42771;BME280;28426;42.872;25.314;2024-03-08T09:09:43;97316.69;;;2.69;91.01
42771;BME280;28426;42.872;25.314;2024-03-08T09:12:17;97316.56;;;2.71;90.81
42771;BME280;28426;42.872;25.314;2024-03-08T09:14:47;97323.38;;;2.73;90.77
42771;BME280;28426;42.872;25.314;2024-03-08T09:17:18;97318.97;;;2.74;91.07
42771;BME280;28426;42.872;25.314;2024-03-08T09:19:50;97320.38;;;2.78;90.83
42771;BME280;28426;42.872;25.314;2024-03-08T09:22:21;97327.19;;;2.81;91.13
42771;BME280;28426;42.872;25.314;2024-03-08T09:24:52;97324.13;;;2.85;91.01
42771;BME280;28426;42.872;25.314;2024-03-08T09:27:27;97320.28;;;2.90;91.19
42771;BME280;28426;42.872;25.314;2024-03-08T09:29:58;97331.38;;;2.93;91.26
42771;BME280;28426;42.872;25.314;2024-03-08T09:32:30;97333.66;;;2.98;90.90
42771;BME280;28426;42.872;25.314;2024-03-08T09:35:01;97338.66;;;3.01;90.65
42771;BME280;28426;42.872;25.314;2024-03-08T09:37:35;97337.81;;;3.00;90.61
42771;BME280;28426;42.872;25.314;2024-03-08T09:40:06;97333.94;;;3.05;90.78
42771;BME280;28426;42.872;25.314;2024-03-08T09:42:48;97345.06;;;3.08;90.48
42771;BME280;28426;42.872;25.314;2024-03-08T09:45:20;97338.69;;;3.11;90.56
42771;BME280;28426;42.872;25.314;2024-03-08T09:47:52;97342.88;;;3.13;90.32
42771;BME280;28426;42.872;25.314;2024-03-08T09:50:23;97348.72;;;3.17;90.48
42771;BME280;28426;42.872;25.314;2024-03-08T09:52:55;97352.91;;;3.20;90.20
42771;BME280;28426;42.872;25.314;2024-03-08T09:55:27;97341.50;;;3.19;90.09
42771;BME280;28426;42.872;25.314;2024-03-08T09:58:05;97342.91;;;3.23;90.18
42771;BME280;28426;42.872;25.314;2024-03-08T10:00:49;97350.69;;;3.25;89.79
42771;BME280;28426;42.872;25.314;2024-03-08T10:03:19;97354.03;;;3.27;89.89
42771;BME280;28426;42.872;25.314;2024-03-08T10:05:50;97354.75;;;3.29;89.63
42771;BME280;28426;42.872;25.314;2024-03-08T10:08:21;97355.59;;;3.30;89.81
42771;BME280;28426;42.872;25.314;2024-03-08T10:10:52;97351.13;;;3.30;89.57
42771;BME280;28426;42.872;25.314;2024-03-08T10:13:26;97348.38;;;3.32;89.64
42771;BME280;28426;42.872;25.314;2024-03-08T10:15:57;97347.13;;;3.36;89.55
42771;BME280;28426;42.872;25.314;2024-03-08T10:18:28;97342.69;;;3.36;89.32
42771;BME280;28426;42.872;25.314;2024-03-08T10:21:04;97350.47;;;3.38;89.32
42771;BME280;28426;42.872;25.314;2024-03-08T10:23:35;97342.41;;;3.39;88.85
42771;BME280;28426;42.872;25.314;2024-03-08T10:26:10;97358.25;;;3.39;88.73
42771;BME280;28426;42.872;25.314;2024-03-08T10:28:47;97354.78;;;3.39;88.89
42771;BME280;28426;42.872;25.314;2024-03-08T10:31:19;97358.13;;;3.41;88.70
42771;BME280;28426;42.872;25.314;2024-03-08T10:33:50;97349.63;;;3.37;88.08
42771;BME280;28426;42.872;25.314;2024-03-08T10:36:20;97334.06;;;3.34;88.32
42771;BME280;28426;42.872;25.314;2024-03-08T10:38:52;97333.22;;;3.34;88.48
42771;BME280;28426;42.872;25.314;2024-03-08T10:41:24;97339.22;;;3.36;88.34
42771;BME280;28426;42.872;25.314;2024-03-08T10:44:11;97339.22;;;3.36;88.47
42771;BME280;28426;42.872;25.314;2024-03-08T10:47:00;97338.25;;;3.37;88.46
42771;BME280;28426;42.872;25.314;2024-03-08T10:49:49;97340.06;;;3.36;88.13
42771;BME280;28426;42.872;25.314;2024-03-08T10:52:21;97340.75;;;3.38;88.27
42771;BME280;28426;42.872;25.314;2024-03-08T10:54:52;97340.75;;;3.38;88.33
42771;BME280;28426;42.872;25.314;2024-03-08T10:57:27;97333.81;;;3.37;88.11
42771;BME280;28426;42.872;25.314;2024-03-08T11:00:02;97332.28;;;3.35;88.14
42771;BME280;28426;42.872;25.314;2024-03-08T11:02:37;97342.53;;;3.38;88.41
42771;BME280;28426;42.872;25.314;2024-03-08T11:05:10;97333.81;;;3.37;88.20
42771;BME280;28426;42.872;25.314;2024-03-08T11:07:43;97336.31;;;3.39;88.31
42771;BME280;28426;42.872;25.314;2024-03-08T11:10:21;97332.72;;;3.40;88.08
42771;BME280;28426;42.872;25.314;2024-03-08T11:12:52;97333.41;;;3.42;88.47
42771;BME280;28426;42.872;25.314;2024-03-08T11:15:25;97333.13;;;3.45;88.52
42771;BME280;28426;42.872;25.314;2024-03-08T11:18:00;97331.34;;;3.46;88.32
42771;BME280;28426;42.872;25.314;2024-03-08T11:20:32;97334.53;;;3.49;88.04
42771;BME280;28426;42.872;25.314;2024-03-08T11:23:04;97330.25;;;3.48;88.05
42771;BME280;28426;42.872;25.314;2024-03-08T11:25:39;97330.25;;;3.48;87.96
42771;BME280;28426;42.872;25.314;2024-03-08T11:28:13;97336.63;;;3.46;87.23
42771;BME280;28426;42.872;25.314;2024-03-08T11:33:51;97331.47;;;3.44;87.45
42771;BME280;28426;42.872;25.314;2024-03-08T11:36:22;97333.28;;;3.44;87.68
42771;BME280;28426;42.872;25.314;2024-03-08T11:38:53;97334.13;;;3.44;87.63
42771;BME280;28426;42.872;25.314;2024-03-08T11:41:24;97334.94;;;3.45;87.41
42771;BME280;28426;42.872;25.314;2024-03-08T11:44:03;97334.94;;;3.45;87.17
42771;BME280;28426;42.872;25.314;2024-03-08T11:46:36;97334.94;;;3.45;87.01
42771;BME280;28426;42.872;25.314;2024-03-08T11:49:16;97332.44;;;3.43;86.83
42771;BME280;28426;42.872;25.314;2024-03-08T11:51:51;97328.84;;;3.44;86.73
42771;BME280;28426;42.872;25.314;2024-03-08T11:54:23;97328.84;;;3.44;86.70
42771;BME280;28426;42.872;25.314;2024-03-08T11:56:55;97332.16;;;3.46;86.85
42771;BME280;28426;42.872;25.314;2024-03-08T11:59:28;97331.91;;;3.49;87.06
42771;BME280;28426;42.872;25.314;2024-03-08T12:02:00;97325.53;;;3.52;87.51
42771;BME280;28426;42.872;25.314;2024-03-08T12:04:34;97325.94;;;3.57;87.14
42771;BME280;28426;42.872;25.314;2024-03-08T12:07:10;97327.47;;;3.60;87.10
42771;BME280;28426;42.872;25.314;2024-03-08T12:09:41;97326.38;;;3.62;86.86
42771;BME280;28426;42.872;25.314;2024-03-08T12:12:14;97327.09;;;3.64;86.68
42771;BME280;28426;42.872;25.314;2024-03-08T12:14:46;97325.84;;;3.69;86.99
42771;BME280;28426;42.872;25.314;2024-03-08T12:17:17;97317.94;;;3.69;86.92
42771;BME280;28426;42.872;25.314;2024-03-08T12:19:51;97328.78;;;3.75;86.67
42771;BME280;28426;42.872;25.314;2024-03-08T12:22:25;97325.84;;;3.78;86.71
42771;BME280;28426;42.872;25.314;2024-03-08T12:25:06;97322.94;;;3.82;86.63
42771;BME280;28426;42.872;25.314;2024-03-08T12:27:38;97318.38;;;3.84;86.05
42771;BME280;28426;42.872;25.314;2024-03-08T12:30:23;97325.31;;;3.85;85.57
42771;BME280;28426;42.872;25.314;2024-03-08T12:32:55;97317.53;;;3.83;85.37
42771;BME280;28426;42.872;25.314;2024-03-08T12:35:32;97313.09;;;3.84;85.30
42771;BME280;28426;42.872;25.314;2024-03-08T12:38:03;97312.13;;;3.85;85.70
42771;BME280;28426;42.872;25.314;2024-03-08T12:40:34;97306.84;;;3.85;85.33
42771;BME280;28426;42.872;25.314;2024-03-08T12:43:09;97305.84;;;3.86;85.17
42771;BME280;28426;42.872;25.314;2024-03-08T12:45:43;97314.63;;;3.86;85.12
42771;BME280;28426;42.872;25.314;2024-03-08T12:48:14;97306.53;;;3.88;85.15
42771;BME280;28426;42.872;25.314;2024-03-08T12:50:49;97302.81;;;3.90;85.30
42771;BME280;28426;42.872;25.314;2024-03-08T12:53:22;97309.63;;;3.93;85.44
42771;BME280;28426;42.872;25.314;2024-03-08T12:55:56;97303.38;;;3.94;84.86
42771;BME280;28426;42.872;25.314;2024-03-08T12:58:27;97309.34;;;3.96;84.96
42771;BME280;28426;42.872;25.314;2024-03-08T13:00:58;97315.31;;;3.98;84.92
42771;BME280;28426;42.872;25.314;2024-03-08T13:03:32;97311.03;;;3.97;84.63
42771;BME280;28426;42.872;25.314;2024-03-08T13:06:06;97307.53;;;3.97;84.20
42771;BME280;28426;42.872;25.314;2024-03-08T13:08:37;97311.03;;;3.97;84.12
42771;BME280;28426;42.872;25.314;2024-03-08T13:11:08;97308.22;;;3.99;84.60
42771;BME280;28426;42.872;25.314;2024-03-08T13:13:40;97308.09;;;4.00;84.16
42771;BME280;28426;42.872;25.314;2024-03-08T13:16:11;97317.66;;;4.01;84.11
42771;BME280;28426;42.872;25.314;2024-03-08T13:18:42;97310.72;;;4.00;83.85
42771;BME280;28426;42.872;25.314;2024-03-08T13:21:17;97315.19;;;4.00;84.08
42771;BME280;28426;42.872;25.314;2024-03-08T13:23:51;97311.97;;;3.96;83.28
42771;BME280;28426;42.872;25.314;2024-03-08T13:26:22;97318.50;;;3.92;83.46
42771;BME280;28426;42.872;25.314;2024-03-08T13:28:58;97312.53;;;3.90;83.67
42771;BME280;28426;42.872;25.314;2024-03-08T13:31:28;97320.47;;;3.90;83.90